sensor_id;sensor_type;location;lat;lon;timestamp;P1;durP1;ratioP1;P2;durP2;ratioP2
10315;SDS011;5203;48.976;8.306;2023-06-22T00:00:56;8.95;;;8.25;;
10315;SDS011;5203;48.976;8.306;2023-06-22T00:03:24;8.88;;;8.25;;
10315;SDS011;5203;48.976;8.306;2023-06-22T00:05:50;8.85;;;8.23;;
10315;SDS011;5203;48.976;8.306;2023-06-22T00:08:17;9.05;;;8.43;;
10315;SDS011;5203;48.976;8.306;2023-06-22T00:10:43;9.18;;;8.40;;
10315;SDS011;5203;48.976;8.306;2023-06-22T00:13:09;8.75;;;8.10;;
10315;SDS011;5203;48.976;8.306;2023-06-22T00:15:36;8.55;;;7.95;;
10315;SDS011;5203;48.976;8.306;2023-06-22T00:18:03;8.70;;;8.00;;
10315;SDS011;5203;48.976;8.306;2023-06-22T00:20:31;8.77;;;8.07;;
10315;SDS011;5203;48.976;8.306;2023-06-22T00:22:58;8.82;;;8.10;;
10315;SDS011;5203;48.976;8.306;2023-06-22T00:25:25;8.88;;;8.25;;
10315;SDS011;5203;48.976;8.306;2023-06-22T00:27:51;9.05;;;8.35;;
10315;SDS011;5203;48.976;8.306;2023-06-22T00:30:16;17.80;;;11.52;;
10315;SDS011;5203;48.976;8.306;2023-06-22T00:32:43;10.77;;;9.68;;
10315;SDS011;5203;48.976;8.306;2023-06-22T00:35:10;11.65;;;9.07;;
10315;SDS011;5203;48.976;8.306;2023-06-22T00:37:37;9.93;;;8.93;;
10315;SDS011;5203;48.976;8.306;2023-06-22T00:40:06;9.77;;;8.85;;
10315;SDS011;5203;48.976;8.306;2023-06-22T00:42:32;9.38;;;8.48;;
10315;SDS011;5203;48.976;8.306;2023-06-22T00:44:58;9.40;;;8.50;;
10315;SDS011;5203;48.976;8.306;2023-06-22T00:47:24;11.00;;;9.52;;
10315;SDS011;5203;48.976;8.306;2023-06-22T00:49:49;12.20;;;8.98;;
10315;SDS011;5203;48.976;8.306;2023-06-22T00:52:21;9.93;;;9.15;;
10315;SDS011;5203;48.976;8.306;2023-06-22T00:54:51;9.95;;;9.05;;
10315;SDS011;5203;48.976;8.306;2023-06-22T00:57:17;10.60;;;9.70;;
10315;SDS011;5203;48.976;8.306;2023-06-22T00:59:45;10.73;;;9.80;;
10315;SDS011;5203;48.976;8.306;2023-06-22T01:02:12;11.65;;;10.57;;
10315;SDS011;5203;48.976;8.306;2023-06-22T01:04:39;11.02;;;10.00;;
10315;SDS011;5203;48.976;8.306;2023-06-22T01:07:16;11.30;;;10.23;;
10315;SDS011;5203;48.976;8.306;2023-06-22T01:12:18;10.68;;;9.77;;
10315;SDS011;5203;48.976;8.306;2023-06-22T01:14:50;11.15;;;10.15;;
10315;SDS011;5203;48.976;8.306;2023-06-22T01:17:25;11.45;;;10.35;;
10315;SDS011;5203;48.976;8.306;2023-06-22T01:19:54;12.13;;;10.75;;
10315;SDS011;5203;48.976;8.306;2023-06-22T01:22:22;11.63;;;10.57;;
10315;SDS011;5203;48.976;8.306;2023-06-22T01:30:39;11.23;;;10.10;;
10315;SDS011;5203;48.976;8.306;2023-06-22T01:33:07;12.38;;;11.27;;
10315;SDS011;5203;48.976;8.306;2023-06-22T01:35:37;10.88;;;9.98;;
10315;SDS011;5203;48.976;8.306;2023-06-22T01:38:03;11.52;;;10.52;;
10315;SDS011;5203;48.976;8.306;2023-06-22T01:40:29;11.80;;;10.63;;
10315;SDS011;5203;48.976;8.306;2023-06-22T01:42:58;11.30;;;10.40;;
10315;SDS011;5203;48.976;8.306;2023-06-22T01:45:28;12.70;;;11.35;;
10315;SDS011;5203;48.976;8.306;2023-06-22T01:47:54;10.57;;;9.77;;
10315;SDS011;5203;48.976;8.306;2023-06-22T01:50:20;11.63;;;10.60;;
10315;SDS011;5203;48.976;8.306;2023-06-22T01:52:46;10.73;;;9.80;;
10315;SDS011;5203;48.976;8.306;2023-06-22T01:55:12;11.35;;;10.55;;
10315;SDS011;5203;48.976;8.306;2023-06-22T01:57:38;12.73;;;11.63;;
10315;SDS011;5203;48.976;8.306;2023-06-22T02:00:06;11.85;;;10.85;;
10315;SDS011;5203;48.976;8.306;2023-06-22T02:02:38;11.70;;;10.88;;
10315;SDS011;5203;48.976;8.306;2023-06-22T02:05:08;11.52;;;10.65;;
10315;SDS011;5203;48.976;8.306;2023-06-22T02:07:44;11.10;;;10.20;;
10315;SDS011;5203;48.976;8.306;2023-06-22T02:10:15;11.75;;;10.85;;
10315;SDS011;5203;48.976;8.306;2023-06-22T02:12:44;11.43;;;10.50;;
10315;SDS011;5203;48.976;8.306;2023-06-22T02:15:10;11.27;;;10.35;;
10315;SDS011;5203;48.976;8.306;2023-06-22T02:17:37;12.00;;;10.88;;
10315;SDS011;5203;48.976;8.306;2023-06-22T02:20:03;10.93;;;10.02;;
10315;SDS011;5203;48.976;8.306;2023-06-22T02:22:32;10.93;;;9.93;;
10315;SDS011;5203;48.976;8.306;2023-06-22T02:24:58;11.90;;;10.88;;
10315;SDS011;5203;48.976;8.306;2023-06-22T02:27:24;10.75;;;9.95;;
10315;SDS011;5203;48.976;8.306;2023-06-22T02:29:49;11.38;;;10.38;;
10315;SDS011;5203;48.976;8.306;2023-06-22T02:32:15;11.10;;;10.02;;
10315;SDS011;5203;48.976;8.306;2023-06-22T02:34:42;11.05;;;10.10;;
10315;SDS011;5203;48.976;8.306;2023-06-22T02:37:12;10.85;;;10.15;;
10315;SDS011;5203;48.976;8.306;2023-06-22T02:39:41;10.98;;;9.98;;
10315;SDS011;5203;48.976;8.306;2023-06-22T02:42:07;10.77;;;9.98;;
10315;SDS011;5203;48.976;8.306;2023-06-22T02:44:33;10.95;;;10.07;;
10315;SDS011;5203;48.976;8.306;2023-06-22T02:46:58;10.77;;;9.80;;
10315;SDS011;5203;48.976;8.306;2023-06-22T02:49:24;11.55;;;10.45;;
10315;SDS011;5203;48.976;8.306;2023-06-22T02:51:50;11.60;;;10.52;;
10315;SDS011;5203;48.976;8.306;2023-06-22T02:54:16;11.45;;;10.48;;
10315;SDS011;5203;48.976;8.306;2023-06-22T02:56:41;10.25;;;9.52;;
10315;SDS011;5203;48.976;8.306;2023-06-22T02:59:10;10.73;;;9.80;;
10315;SDS011;5203;48.976;8.306;2023-06-22T03:01:37;11.27;;;10.23;;
10315;SDS011;5203;48.976;8.306;2023-06-22T03:04:05;12.02;;;10.95;;
10315;SDS011;5203;48.976;8.306;2023-06-22T03:06:31;10.77;;;9.88;;
10315;SDS011;5203;48.976;8.306;2023-06-22T03:09:01;11.45;;;10.57;;
10315;SDS011;5203;48.976;8.306;2023-06-22T03:11:30;11.07;;;10.18;;
10315;SDS011;5203;48.976;8.306;2023-06-22T03:13:56;10.85;;;9.95;;
10315;SDS011;5203;48.976;8.306;2023-06-22T03:16:21;12.02;;;10.90;;
10315;SDS011;5203;48.976;8.306;2023-06-22T03:18:47;11.25;;;10.25;;
10315;SDS011;5203;48.976;8.306;2023-06-22T03:21:13;11.05;;;10.13;;
10315;SDS011;5203;48.976;8.306;2023-06-22T03:23:40;10.65;;;9.85;;
10315;SDS011;5203;48.976;8.306;2023-06-22T03:26:06;11.25;;;10.23;;
10315;SDS011;5203;48.976;8.306;2023-06-22T03:28:33;11.65;;;10.70;;
10315;SDS011;5203;48.976;8.306;2023-06-22T03:30:59;11.18;;;10.23;;
10315;SDS011;5203;48.976;8.306;2023-06-22T03:33:24;11.80;;;10.90;;
10315;SDS011;5203;48.976;8.306;2023-06-22T03:35:50;11.07;;;10.18;;
10315;SDS011;5203;48.976;8.306;2023-06-22T03:38:16;12.48;;;11.35;;
10315;SDS011;5203;48.976;8.306;2023-06-22T03:40:42;11.48;;;10.57;;
10315;SDS011;5203;48.976;8.306;2023-06-22T03:43:08;10.75;;;9.82;;
10315;SDS011;5203;48.976;8.306;2023-06-22T03:45:34;12.57;;;11.38;;
10315;SDS011;5203;48.976;8.306;2023-06-22T03:48:00;11.45;;;10.35;;
10315;SDS011;5203;48.976;8.306;2023-06-22T03:50:26;11.95;;;11.05;;
10315;SDS011;5203;48.976;8.306;2023-06-22T03:52:52;11.05;;;10.00;;
10315;SDS011;5203;48.976;8.306;2023-06-22T03:55:19;11.77;;;10.65;;
10315;SDS011;5203;48.976;8.306;2023-06-22T03:57:45;12.02;;;11.10;;
10315;SDS011;5203;48.976;8.306;2023-06-22T04:00:11;11.48;;;10.48;;
10315;SDS011;5203;48.976;8.306;2023-06-22T04:02:37;11.50;;;10.60;;
10315;SDS011;5203;48.976;8.306;2023-06-22T04:05:04;11.50;;;10.60;;
10315;SDS011;5203;48.976;8.306;2023-06-22T04:07:30;11.60;;;10.60;;
10315;SDS011;5203;48.976;8.306;2023-06-22T04:09:55;12.35;;;11.35;;
10315;SDS011;5203;48.976;8.306;2023-06-22T04:12:21;11.73;;;10.77;;
10315;SDS011;5203;48.976;8.306;2023-06-22T04:14:47;11.40;;;10.60;;
10315;SDS011;5203;48.976;8.306;2023-06-22T04:17:12;12.13;;;11.10;;
10315;SDS011;5203;48.976;8.306;2023-06-22T04:19:39;11.60;;;10.80;;
10315;SDS011;5203;48.976;8.306;2023-06-22T04:22:05;12.10;;;11.02;;
10315;SDS011;5203;48.976;8.306;2023-06-22T04:24:32;11.32;;;10.43;;
10315;SDS011;5203;48.976;8.306;2023-06-22T04:26:58;11.88;;;10.98;;
10315;SDS011;5203;48.976;8.306;2023-06-22T04:29:28;11.88;;;10.88;;
10315;SDS011;5203;48.976;8.306;2023-06-22T04:31:58;12.55;;;11.35;;
10315;SDS011;5203;48.976;8.306;2023-06-22T04:34:28;11.05;;;10.25;;
10315;SDS011;5203;48.976;8.306;2023-06-22T04:36:54;12.15;;;11.15;;
10315;SDS011;5203;48.976;8.306;2023-06-22T04:39:20;12.15;;;11.13;;
10315;SDS011;5203;48.976;8.306;2023-06-22T04:41:46;12.32;;;11.18;;
10315;SDS011;5203;48.976;8.306;2023-06-22T04:44:13;12.15;;;11.13;;
10315;SDS011;5203;48.976;8.306;2023-06-22T04:46:48;12.15;;;11.15;;
10315;SDS011;5203;48.976;8.306;2023-06-22T04:49:25;12.52;;;11.32;;
10315;SDS011;5203;48.976;8.306;2023-06-22T04:51:57;12.73;;;11.63;;
10315;SDS011;5203;48.976;8.306;2023-06-22T04:54:24;11.95;;;11.05;;
10315;SDS011;5203;48.976;8.306;2023-06-22T04:56:49;11.25;;;10.25;;
10315;SDS011;5203;48.976;8.306;2023-06-22T04:59:25;11.80;;;10.80;;
10315;SDS011;5203;48.976;8.306;2023-06-22T05:01:53;12.80;;;11.60;;
10315;SDS011;5203;48.976;8.306;2023-06-22T05:04:20;12.75;;;11.45;;
10315;SDS011;5203;48.976;8.306;2023-06-22T05:06:48;12.10;;;11.05;;
10315;SDS011;5203;48.976;8.306;2023-06-22T05:09:14;13.25;;;12.05;;
10315;SDS011;5203;48.976;8.306;2023-06-22T05:11:39;12.20;;;11.20;;
10315;SDS011;5203;48.976;8.306;2023-06-22T05:14:05;12.40;;;11.30;;
10315;SDS011;5203;48.976;8.306;2023-06-22T05:16:32;12.75;;;11.55;;
10315;SDS011;5203;48.976;8.306;2023-06-22T05:18:58;12.30;;;11.20;;
10315;SDS011;5203;48.976;8.306;2023-06-22T05:21:25;12.70;;;11.43;;
10315;SDS011;5203;48.976;8.306;2023-06-22T05:23:55;12.75;;;11.68;;
10315;SDS011;5203;48.976;8.306;2023-06-22T05:26:25;12.63;;;11.60;;
10315;SDS011;5203;48.976;8.306;2023-06-22T05:28:51;12.15;;;11.23;;
10315;SDS011;5203;48.976;8.306;2023-06-22T05:31:17;12.75;;;11.60;;
10315;SDS011;5203;48.976;8.306;2023-06-22T05:33:45;12.75;;;11.52;;
10315;SDS011;5203;48.976;8.306;2023-06-22T05:36:11;13.18;;;11.95;;
10315;SDS011;5203;48.976;8.306;2023-06-22T05:38:40;13.00;;;11.77;;
10315;SDS011;5203;48.976;8.306;2023-06-22T05:41:06;12.70;;;11.43;;
10315;SDS011;5203;48.976;8.306;2023-06-22T05:43:32;13.15;;;11.32;;
10315;SDS011;5203;48.976;8.306;2023-06-22T05:45:59;13.02;;;11.82;;
10315;SDS011;5203;48.976;8.306;2023-06-22T05:48:25;12.85;;;11.75;;
10315;SDS011;5203;48.976;8.306;2023-06-22T05:50:51;13.35;;;12.02;;
10315;SDS011;5203;48.976;8.306;2023-06-22T05:53:17;12.45;;;11.35;;
10315;SDS011;5203;48.976;8.306;2023-06-22T05:55:43;13.27;;;11.13;;
10315;SDS011;5203;48.976;8.306;2023-06-22T05:58:08;12.23;;;11.13;;
10315;SDS011;5203;48.976;8.306;2023-06-22T06:00:34;13.40;;;12.25;;
10315;SDS011;5203;48.976;8.306;2023-06-22T06:03:01;13.35;;;11.88;;
10315;SDS011;5203;48.976;8.306;2023-06-22T06:05:30;12.02;;;10.90;;
10315;SDS011;5203;48.976;8.306;2023-06-22T06:07:57;12.30;;;11.30;;
10315;SDS011;5203;48.976;8.306;2023-06-22T06:10:23;12.45;;;11.20;;
10315;SDS011;5203;48.976;8.306;2023-06-22T06:12:48;12.07;;;10.90;;
10315;SDS011;5203;48.976;8.306;2023-06-22T06:15:14;12.10;;;11.07;;
10315;SDS011;5203;48.976;8.306;2023-06-22T06:17:46;14.15;;;12.07;;
10315;SDS011;5203;48.976;8.306;2023-06-22T06:20:12;32.88;;;29.98;;
10315;SDS011;5203;48.976;8.306;2023-06-22T06:22:38;17.17;;;15.68;;
10315;SDS011;5203;48.976;8.306;2023-06-22T06:25:04;13.27;;;11.95;;
10315;SDS011;5203;48.976;8.306;2023-06-22T06:27:30;12.23;;;11.18;;
10315;SDS011;5203;48.976;8.306;2023-06-22T06:29:56;13.18;;;11.88;;
10315;SDS011;5203;48.976;8.306;2023-06-22T06:32:22;13.43;;;12.23;;
10315;SDS011;5203;48.976;8.306;2023-06-22T06:34:47;12.02;;;11.02;;
10315;SDS011;5203;48.976;8.306;2023-06-22T06:37:13;13.68;;;12.27;;
10315;SDS011;5203;48.976;8.306;2023-06-22T06:39:39;12.93;;;11.88;;
10315;SDS011;5203;48.976;8.306;2023-06-22T06:42:05;13.27;;;12.18;;
10315;SDS011;5203;48.976;8.306;2023-06-22T06:44:31;12.82;;;11.52;;
10315;SDS011;5203;48.976;8.306;2023-06-22T06:46:56;12.15;;;11.20;;
10315;SDS011;5203;48.976;8.306;2023-06-22T06:49:22;12.50;;;11.45;;
10315;SDS011;5203;48.976;8.306;2023-06-22T06:51:48;12.52;;;11.48;;
10315;SDS011;5203;48.976;8.306;2023-06-22T06:54:13;11.65;;;10.60;;
10315;SDS011;5203;48.976;8.306;2023-06-22T06:56:39;12.25;;;11.32;;
10315;SDS011;5203;48.976;8.306;2023-06-22T06:59:05;12.07;;;11.18;;
10315;SDS011;5203;48.976;8.306;2023-06-22T07:01:30;13.38;;;11.75;;
10315;SDS011;5203;48.976;8.306;2023-06-22T07:03:58;11.85;;;10.90;;
10315;SDS011;5203;48.976;8.306;2023-06-22T07:06:25;12.88;;;11.73;;
10315;SDS011;5203;48.976;8.306;2023-06-22T07:08:54;14.30;;;12.18;;
10315;SDS011;5203;48.976;8.306;2023-06-22T07:11:20;12.85;;;11.77;;
10315;SDS011;5203;48.976;8.306;2023-06-22T07:13:46;12.45;;;11.55;;
10315;SDS011;5203;48.976;8.306;2023-06-22T07:16:12;13.77;;;12.75;;
10315;SDS011;5203;48.976;8.306;2023-06-22T07:18:39;12.95;;;11.75;;
10315;SDS011;5203;48.976;8.306;2023-06-22T07:21:05;14.27;;;12.98;;
10315;SDS011;5203;48.976;8.306;2023-06-22T07:23:32;13.75;;;12.38;;
10315;SDS011;5203;48.976;8.306;2023-06-22T07:25:58;12.75;;;11.75;;
10315;SDS011;5203;48.976;8.306;2023-06-22T07:28:26;12.35;;;11.13;;
10315;SDS011;5203;48.976;8.306;2023-06-22T07:30:52;12.25;;;11.18;;
10315;SDS011;5203;48.976;8.306;2023-06-22T07:33:18;12.77;;;11.02;;
10315;SDS011;5203;48.976;8.306;2023-06-22T07:35:44;12.38;;;11.38;;
10315;SDS011;5203;48.976;8.306;2023-06-22T07:38:10;11.35;;;10.35;;
10315;SDS011;5203;48.976;8.306;2023-06-22T07:40:36;11.40;;;10.40;;
10315;SDS011;5203;48.976;8.306;2023-06-22T07:43:02;12.18;;;11.02;;
10315;SDS011;5203;48.976;8.306;2023-06-22T07:45:28;11.43;;;10.43;;
10315;SDS011;5203;48.976;8.306;2023-06-22T07:47:54;12.23;;;11.23;;
10315;SDS011;5203;48.976;8.306;2023-06-22T07:50:20;12.27;;;11.38;;
10315;SDS011;5203;48.976;8.306;2023-06-22T07:52:46;11.27;;;10.35;;
10315;SDS011;5203;48.976;8.306;2023-06-22T07:55:13;12.30;;;11.18;;
10315;SDS011;5203;48.976;8.306;2023-06-22T07:57:39;11.70;;;10.80;;
10315;SDS011;5203;48.976;8.306;2023-06-22T08:00:07;34.25;;;31.17;;
10315;SDS011;5203;48.976;8.306;2023-06-22T08:02:39;22.13;;;20.27;;
10315;SDS011;5203;48.976;8.306;2023-06-22T08:05:06;12.75;;;11.40;;
10315;SDS011;5203;48.976;8.306;2023-06-22T08:07:33;11.98;;;11.00;;
10315;SDS011;5203;48.976;8.306;2023-06-22T08:10:02;11.73;;;10.82;;
10315;SDS011;5203;48.976;8.306;2023-06-22T08:12:29;11.98;;;10.77;;
10315;SDS011;5203;48.976;8.306;2023-06-22T08:14:54;13.10;;;11.80;;
10315;SDS011;5203;48.976;8.306;2023-06-22T08:17:21;11.93;;;11.05;;
10315;SDS011;5203;48.976;8.306;2023-06-22T08:19:51;12.27;;;11.13;;
10315;SDS011;5203;48.976;8.306;2023-06-22T08:22:16;13.00;;;11.52;;
10315;SDS011;5203;48.976;8.306;2023-06-22T08:24:43;13.23;;;12.20;;
10315;SDS011;5203;48.976;8.306;2023-06-22T08:27:09;14.93;;;13.13;;
10315;SDS011;5203;48.976;8.306;2023-06-22T08:29:37;12.13;;;11.00;;
10315;SDS011;5203;48.976;8.306;2023-06-22T08:32:02;12.15;;;11.18;;
10315;SDS011;5203;48.976;8.306;2023-06-22T08:34:28;11.85;;;10.95;;
10315;SDS011;5203;48.976;8.306;2023-06-22T08:36:54;11.75;;;10.82;;
10315;SDS011;5203;48.976;8.306;2023-06-22T08:39:20;12.25;;;11.23;;
10315;SDS011;5203;48.976;8.306;2023-06-22T08:41:47;12.43;;;10.25;;
10315;SDS011;5203;48.976;8.306;2023-06-22T08:44:13;12.60;;;11.05;;
10315;SDS011;5203;48.976;8.306;2023-06-22T08:46:39;12.88;;;11.57;;
10315;SDS011;5203;48.976;8.306;2023-06-22T08:49:06;12.63;;;11.52;;
10315;SDS011;5203;48.976;8.306;2023-06-22T08:51:32;12.63;;;11.35;;
10315;SDS011;5203;48.976;8.306;2023-06-22T08:53:58;12.45;;;11.27;;
10315;SDS011;5203;48.976;8.306;2023-06-22T08:56:23;11.65;;;10.73;;
10315;SDS011;5203;48.976;8.306;2023-06-22T08:58:49;12.68;;;11.57;;
10315;SDS011;5203;48.976;8.306;2023-06-22T09:01:14;12.18;;;10.98;;
10315;SDS011;5203;48.976;8.306;2023-06-22T09:03:41;12.75;;;11.60;;
10315;SDS011;5203;48.976;8.306;2023-06-22T09:06:07;13.57;;;12.27;;
10315;SDS011;5203;48.976;8.306;2023-06-22T09:08:34;13.50;;;12.27;;
10315;SDS011;5203;48.976;8.306;2023-06-22T09:11:01;14.57;;;13.48;;
10315;SDS011;5203;48.976;8.306;2023-06-22T09:13:28;17.85;;;16.10;;
10315;SDS011;5203;48.976;8.306;2023-06-22T09:15:55;13.77;;;12.70;;
10315;SDS011;5203;48.976;8.306;2023-06-22T09:18:21;13.57;;;12.25;;
10315;SDS011;5203;48.976;8.306;2023-06-22T09:20:46;13.70;;;12.40;;
10315;SDS011;5203;48.976;8.306;2023-06-22T09:23:12;12.88;;;11.95;;
10315;SDS011;5203;48.976;8.306;2023-06-22T09:25:38;13.93;;;12.73;;
10315;SDS011;5203;48.976;8.306;2023-06-22T09:28:05;14.60;;;13.30;;
10315;SDS011;5203;48.976;8.306;2023-06-22T09:30:30;14.65;;;13.57;;
10315;SDS011;5203;48.976;8.306;2023-06-22T09:32:56;13.88;;;12.88;;
10315;SDS011;5203;48.976;8.306;2023-06-22T09:35:22;14.27;;;13.10;;
10315;SDS011;5203;48.976;8.306;2023-06-22T09:37:47;14.20;;;13.05;;
10315;SDS011;5203;48.976;8.306;2023-06-22T09:40:13;14.75;;;13.55;;
10315;SDS011;5203;48.976;8.306;2023-06-22T09:42:41;14.60;;;13.43;;
10315;SDS011;5203;48.976;8.306;2023-06-22T09:45:07;14.90;;;13.70;;
10315;SDS011;5203;48.976;8.306;2023-06-22T09:47:33;13.65;;;12.45;;
10315;SDS011;5203;48.976;8.306;2023-06-22T09:49:59;14.27;;;13.13;;
10315;SDS011;5203;48.976;8.306;2023-06-22T09:52:25;14.65;;;13.40;;
10315;SDS011;5203;48.976;8.306;2023-06-22T09:54:51;13.50;;;12.30;;
10315;SDS011;5203;48.976;8.306;2023-06-22T09:57:17;13.80;;;12.65;;
10315;SDS011;5203;48.976;8.306;2023-06-22T09:59:42;15.00;;;13.40;;
10315;SDS011;5203;48.976;8.306;2023-06-22T10:02:08;13.15;;;12.05;;
10315;SDS011;5203;48.976;8.306;2023-06-22T10:04:34;14.15;;;13.00;;
10315;SDS011;5203;48.976;8.306;2023-06-22T10:07:00;13.40;;;12.30;;
10315;SDS011;5203;48.976;8.306;2023-06-22T10:09:26;13.38;;;12.25;;
10315;SDS011;5203;48.976;8.306;2023-06-22T10:11:52;13.52;;;12.35;;
10315;SDS011;5203;48.976;8.306;2023-06-22T10:14:18;13.57;;;12.52;;
10315;SDS011;5203;48.976;8.306;2023-06-22T10:16:44;13.70;;;12.68;;
10315;SDS011;5203;48.976;8.306;2023-06-22T10:19:09;14.23;;;13.18;;
10315;SDS011;5203;48.976;8.306;2023-06-22T10:21:35;14.75;;;13.52;;
10315;SDS011;5203;48.976;8.306;2023-06-22T10:24:01;14.35;;;13.38;;
10315;SDS011;5203;48.976;8.306;2023-06-22T10:26:34;14.73;;;13.38;;
10315;SDS011;5203;48.976;8.306;2023-06-22T10:29:01;14.93;;;13.85;;
10315;SDS011;5203;48.976;8.306;2023-06-22T10:31:28;15.40;;;13.93;;
10315;SDS011;5203;48.976;8.306;2023-06-22T10:33:54;14.70;;;13.48;;
10315;SDS011;5203;48.976;8.306;2023-06-22T10:36:20;15.50;;;13.63;;
10315;SDS011;5203;48.976;8.306;2023-06-22T10:38:47;14.68;;;13.77;;
10315;SDS011;5203;48.976;8.306;2023-06-22T10:41:13;14.15;;;13.05;;
10315;SDS011;5203;48.976;8.306;2023-06-22T10:43:39;14.85;;;13.70;;
10315;SDS011;5203;48.976;8.306;2023-06-22T10:46:04;15.20;;;13.93;;
10315;SDS011;5203;48.976;8.306;2023-06-22T10:48:31;13.95;;;13.05;;
10315;SDS011;5203;48.976;8.306;2023-06-22T10:50:56;15.35;;;14.15;;
10315;SDS011;5203;48.976;8.306;2023-06-22T10:53:22;14.13;;;12.98;;
10315;SDS011;5203;48.976;8.306;2023-06-22T10:55:48;13.25;;;12.30;;
10315;SDS011;5203;48.976;8.306;2023-06-22T10:58:14;15.27;;;14.27;;
10315;SDS011;5203;48.976;8.306;2023-06-22T11:00:39;15.70;;;14.18;;
10315;SDS011;5203;48.976;8.306;2023-06-22T11:03:05;14.80;;;13.60;;
10315;SDS011;5203;48.976;8.306;2023-06-22T11:05:31;14.57;;;13.48;;
10315;SDS011;5203;48.976;8.306;2023-06-22T11:07:57;15.85;;;14.43;;
10315;SDS011;5203;48.976;8.306;2023-06-22T11:10:23;15.65;;;14.45;;
10315;SDS011;5203;48.976;8.306;2023-06-22T11:12:48;18.52;;;17.08;;
10315;SDS011;5203;48.976;8.306;2023-06-22T11:15:14;15.88;;;14.80;;
10315;SDS011;5203;48.976;8.306;2023-06-22T11:17:40;15.77;;;14.50;;
10315;SDS011;5203;48.976;8.306;2023-06-22T11:20:06;16.25;;;14.88;;
10315;SDS011;5203;48.976;8.306;2023-06-22T11:22:36;16.15;;;14.88;;
10315;SDS011;5203;48.976;8.306;2023-06-22T11:25:04;15.38;;;14.25;;
10315;SDS011;5203;48.976;8.306;2023-06-22T11:27:30;17.10;;;15.85;;
10315;SDS011;5203;48.976;8.306;2023-06-22T11:29:56;16.42;;;15.13;;
10315;SDS011;5203;48.976;8.306;2023-06-22T11:32:22;16.05;;;14.95;;
10315;SDS011;5203;48.976;8.306;2023-06-22T11:34:48;17.77;;;16.35;;
10315;SDS011;5203;48.976;8.306;2023-06-22T11:37:14;16.58;;;15.30;;
10315;SDS011;5203;48.976;8.306;2023-06-22T11:39:40;17.02;;;15.50;;
10315;SDS011;5203;48.976;8.306;2023-06-22T11:42:07;16.80;;;15.55;;
10315;SDS011;5203;48.976;8.306;2023-06-22T11:44:33;16.52;;;15.30;;
10315;SDS011;5203;48.976;8.306;2023-06-22T11:46:59;17.50;;;16.13;;
10315;SDS011;5203;48.976;8.306;2023-06-22T11:49:26;16.08;;;14.90;;
10315;SDS011;5203;48.976;8.306;2023-06-22T11:51:52;17.08;;;15.57;;
10315;SDS011;5203;48.976;8.306;2023-06-22T11:54:18;16.92;;;15.77;;
10315;SDS011;5203;48.976;8.306;2023-06-22T11:56:44;18.92;;;17.15;;
10315;SDS011;5203;48.976;8.306;2023-06-22T11:59:09;17.60;;;16.10;;
10315;SDS011;5203;48.976;8.306;2023-06-22T12:01:35;20.35;;;18.58;;
10315;SDS011;5203;48.976;8.306;2023-06-22T12:04:01;18.25;;;16.88;;
10315;SDS011;5203;48.976;8.306;2023-06-22T12:06:31;17.20;;;15.95;;
10315;SDS011;5203;48.976;8.306;2023-06-22T12:08:57;19.40;;;17.63;;
10315;SDS011;5203;48.976;8.306;2023-06-22T12:11:23;17.55;;;16.15;;
10315;SDS011;5203;48.976;8.306;2023-06-22T12:13:48;18.35;;;17.05;;
10315;SDS011;5203;48.976;8.306;2023-06-22T12:16:14;16.38;;;15.30;;
10315;SDS011;5203;48.976;8.306;2023-06-22T12:18:40;20.27;;;18.73;;
10315;SDS011;5203;48.976;8.306;2023-06-22T12:21:05;18.80;;;17.30;;
10315;SDS011;5203;48.976;8.306;2023-06-22T12:23:32;16.88;;;15.57;;
10315;SDS011;5203;48.976;8.306;2023-06-22T12:25:57;17.80;;;16.52;;
10315;SDS011;5203;48.976;8.306;2023-06-22T12:28:25;18.55;;;17.20;;
10315;SDS011;5203;48.976;8.306;2023-06-22T12:30:50;17.55;;;16.13;;
10315;SDS011;5203;48.976;8.306;2023-06-22T12:33:16;23.65;;;17.23;;
10315;SDS011;5203;48.976;8.306;2023-06-22T12:35:41;17.77;;;15.93;;
10315;SDS011;5203;48.976;8.306;2023-06-22T12:38:07;16.80;;;15.40;;
10315;SDS011;5203;48.976;8.306;2023-06-22T12:40:34;17.15;;;16.02;;
10315;SDS011;5203;48.976;8.306;2023-06-22T12:42:59;17.40;;;16.10;;
10315;SDS011;5203;48.976;8.306;2023-06-22T12:45:27;17.27;;;16.10;;
10315;SDS011;5203;48.976;8.306;2023-06-22T12:47:56;17.48;;;16.20;;
10315;SDS011;5203;48.976;8.306;2023-06-22T12:50:22;18.13;;;16.73;;
10315;SDS011;5203;48.976;8.306;2023-06-22T12:52:48;16.35;;;15.25;;
10315;SDS011;5203;48.976;8.306;2023-06-22T12:55:14;17.42;;;16.13;;
10315;SDS011;5203;48.976;8.306;2023-06-22T12:57:39;17.27;;;15.95;;
10315;SDS011;5203;48.976;8.306;2023-06-22T13:00:05;17.75;;;16.50;;
10315;SDS011;5203;48.976;8.306;2023-06-22T13:02:33;17.05;;;15.95;;
10315;SDS011;5203;48.976;8.306;2023-06-22T13:04:58;17.13;;;16.13;;
10315;SDS011;5203;48.976;8.306;2023-06-22T13:07:24;16.60;;;15.27;;
10315;SDS011;5203;48.976;8.306;2023-06-22T13:09:50;16.48;;;15.38;;
10315;SDS011;5203;48.976;8.306;2023-06-22T13:12:20;17.05;;;15.95;;
10315;SDS011;5203;48.976;8.306;2023-06-22T13:14:46;17.85;;;16.65;;
10315;SDS011;5203;48.976;8.306;2023-06-22T13:17:12;17.63;;;16.30;;
10315;SDS011;5203;48.976;8.306;2023-06-22T13:19:39;18.98;;;17.17;;
10315;SDS011;5203;48.976;8.306;2023-06-22T13:22:04;18.42;;;17.08;;
10315;SDS011;5203;48.976;8.306;2023-06-22T13:24:32;18.30;;;17.05;;
10315;SDS011;5203;48.976;8.306;2023-06-22T13:26:57;17.00;;;15.88;;
10315;SDS011;5203;48.976;8.306;2023-06-22T13:29:23;17.65;;;16.30;;
10315;SDS011;5203;48.976;8.306;2023-06-22T13:31:49;18.25;;;16.70;;
10315;SDS011;5203;48.976;8.306;2023-06-22T13:34:15;17.65;;;16.48;;
10315;SDS011;5203;48.976;8.306;2023-06-22T13:36:40;18.17;;;16.80;;
10315;SDS011;5203;48.976;8.306;2023-06-22T13:39:06;17.52;;;16.20;;
10315;SDS011;5203;48.976;8.306;2023-06-22T13:41:32;17.48;;;16.02;;
10315;SDS011;5203;48.976;8.306;2023-06-22T13:43:58;17.40;;;15.95;;
10315;SDS011;5203;48.976;8.306;2023-06-22T13:46:23;19.13;;;17.52;;
10315;SDS011;5203;48.976;8.306;2023-06-22T13:48:49;19.05;;;17.55;;
10315;SDS011;5203;48.976;8.306;2023-06-22T13:51:14;18.50;;;17.15;;
10315;SDS011;5203;48.976;8.306;2023-06-22T13:53:40;18.13;;;16.70;;
10315;SDS011;5203;48.976;8.306;2023-06-22T13:56:06;18.65;;;17.35;;
10315;SDS011;5203;48.976;8.306;2023-06-22T13:58:32;18.13;;;16.73;;
10315;SDS011;5203;48.976;8.306;2023-06-22T14:00:57;19.00;;;17.17;;
10315;SDS011;5203;48.976;8.306;2023-06-22T14:03:23;16.48;;;15.05;;
10315;SDS011;5203;48.976;8.306;2023-06-22T14:05:49;16.05;;;14.63;;
10315;SDS011;5203;48.976;8.306;2023-06-22T14:08:14;16.80;;;15.40;;
10315;SDS011;5203;48.976;8.306;2023-06-22T14:10:40;17.23;;;15.82;;
10315;SDS011;5203;48.976;8.306;2023-06-22T14:13:05;17.88;;;16.27;;
10315;SDS011;5203;48.976;8.306;2023-06-22T14:15:31;17.67;;;15.98;;
10315;SDS011;5203;48.976;8.306;2023-06-22T14:17:57;16.88;;;15.43;;
10315;SDS011;5203;48.976;8.306;2023-06-22T14:20:23;16.45;;;14.68;;
10315;SDS011;5203;48.976;8.306;2023-06-22T14:22:49;16.48;;;14.93;;
10315;SDS011;5203;48.976;8.306;2023-06-22T14:25:14;16.08;;;14.88;;
10315;SDS011;5203;48.976;8.306;2023-06-22T14:27:40;16.55;;;14.63;;
10315;SDS011;5203;48.976;8.306;2023-06-22T14:30:06;17.55;;;15.73;;
10315;SDS011;5203;48.976;8.306;2023-06-22T14:32:32;15.35;;;13.95;;
10315;SDS011;5203;48.976;8.306;2023-06-22T14:34:57;17.45;;;15.95;;
10315;SDS011;5203;48.976;8.306;2023-06-22T14:37:23;17.67;;;16.17;;
10315;SDS011;5203;48.976;8.306;2023-06-22T14:39:49;16.75;;;15.13;;